AddedLatest Added eBooks:

  1. 2020-10-23ImTOO iPhone Ringtone Maker 3.2.14 Build 20201021 Multilingual
  2. 2020-10-23Perfectly Clear Complete 3.11.0.1875 (x64)
  3. 2020-10-23Active UNERASER Ultimate 16.0
  4. 2020-10-23JixiPix Premium Pack 1.2.1
  5. 2020-10-23PassFab iPhone Unlocker 2.2.6.3 Multilingual
  6. 2020-10-23JixiPix Chromatic Edges 1.0.22 (x64)
  7. 2020-10-23Amulet 2020 1080p BluRay x264 DTS-HD MA 5 1-FGT
  8. 2020-10-23Bruce Springsteens Letter To You 2020 1080p WEBRip x265-RARBG
  9. 2020-10-23India Today - 31 August 2020
  10. 2020-10-23JixiPix Pastello 1.1.15 (x64)
  11. 2020-10-23The Mothman Legacy 2020 1080p WEBRip x265-RARBG
  12. 2020-10-23She Never Died 2019 720p BluRay x264-GETiT
  13. 2020-10-23Jixipix Watercolor Studio 1.4.10
  14. 2020-10-23International Kirmes and Park Revue - August 2020
  15. 2020-10-23The Assent 2019 1080p BluRay x265-RARBG
  16. 2020-10-23JixiPix Premium Pack 1.2.1 (x64) Portable
  17. 2020-10-23The Twins 2019 CHINESE 1080p WEBRip x265-VXT
  18. 2020-10-23J 14 - September 2020
  19. 2020-10-23FigrCollage 3.0.3.0 Advanced / Home / Professional Edition Portable
  20. 2020-10-23Brave Blue World Racing to Solve Our Water Crisis 2019 1080p WEBRip x265-RARBG
  21. 2020-10-23DivX Pro v10.8.9 Multilingual
  22. 2020-10-23People Will Talk 1951 1080p WEBRip x265-RARBG
  23. 2020-10-23Flutter & Dart - The complete Flutter guide from root level
  24. 2020-10-23InventorCAM 2020 SP3 HF2 for Autodesk Inventor 2018-2021 (x64) Multilanguage
  25. 2020-10-23Complete Guide for Salesforce integration
  26. 2020-10-23French Vocabulary Course (Updated)
  27. 2020-10-23Laravel 8.x:Dating Website
  28. 2020-10-23Udemy: Java Interview preparation
  29. 2020-10-23Learn the Tango Chess Opening with CM Kingscrusher
  30. 2020-10-23Haven - Haven Conference 2020
  31. 2020-10-23JixiPix Artista Impresso Pro 1.8.15
  32. 2020-10-23Amazon FBA Escape Plan - Complete Beginner To Expert Seller
  33. 2020-10-23JixiPix Hand Tint Pro 1.0.16
  34. 2020-10-23Land Rover Monthly - October 2020
  35. 2020-10-23COVID-19 A Guide to Home Healthcare
  36. 2020-10-23Landscape Middle East - August 2020 - Removed
  37. 2020-10-23Borat 2 Subsequent Moviefilm 2020 1080p AMZN WEB-DL H264 DDP5 1-EVO
  38. 2020-10-23JixiPix Rip Studio 1.1.13
  39. 2020-10-23Latitudes and Attitudes - Summer 2020
  40. 2020-10-23Alomoves - Beginner Ashtanga
  41. 2020-10-232020s:Depression - understand...overcome. ( Oxford Diploma) (Updated 9/2020)
  42. 2020-10-23Texts From Dad: The Coronavirus Chronicles
  43. 2020-10-23Lightroom Magazine - August 2020
  44. 2020-10-23Deep Learning with Tensorflow and Angular 2!
  45. 2020-10-23Living France - August 2020
  46. 2020-10-23Love Patchwork and Quilting - August 2020 - Removed
  47. 2020-10-23PEN15 S02E01 1080p HEVC x265-MeGusta
  48. 2020-10-23Luxury Travel Advisor - August 2020
  49. 2020-10-23Utopia US S01E02 720p HEVC x265-MeGusta
  50. 2020-10-23MMM - September 2020
  51. 2020-10-23Utopia US S01E03 720p HEVC x265-MeGusta
  52. 2020-10-23Machinery - April 2020
  53. 2020-10-23Borat Subsequent Moviefilm 2020 1080p WEB H264-NAISU - Removed
  54. 2020-10-23Borat 2 Subsequent Moviefilm 2020 HDRip XviD AC3-EVO
  55. 2020-10-23Tempo 2003 1080p WEBRip x265-RARBG
  56. 2020-10-23Mens Fitness UK - October 2020
  57. 2020-10-23BreezeBrowser Pro 1.12
  58. 2020-10-23Military and Aerospace Electronics - August 2020
  59. 2020-10-23PEN15 S02E01 720p HEVC x265-MeGusta
  60. 2020-10-23The Witches 2020 1080p WEB H264-NAISU - Removed
  61. 2020-10-23The Cause 2019 SPANISH 1080p WEBRip x265-VXT
  62. 2020-10-23Utopia US S01E08 720p HEVC x265-MeGusta
  63. 2020-10-23Pirates Of The Caribbean The Curse Of The Black Pearl 2003 720p BluRay 999MB HQ x265 10bit-GalaxyRG
  64. 2020-10-23Lets Scare Julie 2020 BRRip XviD AC3-EVO
  65. 2020-10-23Borat Subsequent Moviefilm 2020 1080p WEBRip x264-RARBG - Removed
  66. 2020-10-23This is North Preston 2019 1080p WEBRip x265-RARBG
  67. 2020-10-23Borat Subsequent Moviefilm 2020 1080p AMZN WEBRip DD5 1 X 264-EVO - Removed
  68. 2020-10-23Amulet 2020 1080p BluRay H264 AAC-RARBG
  69. 2020-10-23PEN15 S02E04 720p HEVC x265-MeGusta
  70. 2020-10-23Business Ethics 2020 1080p WEBRip DD5 1 X 264-EVO
  71. 2020-10-23Business Ethics 2020 720p WEBRip AAC2 0 X 264-EVO
  72. 2020-10-23PEN15 S02E06 720p HEVC x265-MeGusta
  73. 2020-10-23Corel PaintShop Pro 2021 Ultimate v23.1.0.27 (x86-x64)
  74. 2020-10-23The Goldbergs 2013 S08E01 INTERNAL 1080p HEVC x265-MeGusta
  75. 2020-10-23Utopia US S01E07 720p HEVC x265-MeGusta
  76. 2020-10-23Bad Hair 2020 HULU 1080p WEB-DL H264 AC3-EVO
  77. 2020-10-23After We Collided 2020 1080p WEB-DL DD5 1 H 264-EVO
  78. 2020-10-23Bad Hair 2020 1080p WEB H264-NAISU
  79. 2020-10-23Haunting of the Mary Celest 2020 1080p WEB-DL DD5 1 H 264-EVO
  80. 2020-10-23The Place of No Words 2020 1080p WEB-DL DD5 1 H 264-EVO
  81. 2020-10-23On the Rocks 2020 1080p WEB H264-NAISU
  82. 2020-10-23Asteroid-A-Geddon 2020 1080p WEB-DL DD5 1 H 264-EVO
  83. 2020-10-23Code 404 S01E01 720p HEVC x265-MeGusta
  84. 2020-10-23Code 404 S01E03 1080p HEVC x265-MeGusta
  85. 2020-10-23Bad Hair 2020 HDRip XviD AC3-EVO
  86. 2020-10-23Haunting of the Mary Celest 2020 HDRip XviD AC3-EVO
  87. 2020-10-23The Place of No Words 2020 HDRip XviD AC3-EVO
  88. 2020-10-23Asteroid-A-Geddon 2020 HDRip XviD AC3-EVO
  89. 2020-10-23Antebellum 2020 BRRip XviD AC3-EVO - Removed
  90. 2020-10-23Amulet 2020 1080p BluRay x265-RARBG
  91. 2020-10-23537 Votes 2020 1080p WEBRip x265-RARBG
  92. 2020-10-23Girlfriends Reunited 2020 1080p WEBRip x265-RARBG
  93. 2020-10-23That Old Feeling 1997 1080p WEBRip x265-RARBG
  94. 2020-10-23Jake and Jack 2019 1080p WEBRip x265-RARBG
  95. 2020-10-23Here Awhile 2019 1080p WEBRip x265-RARBG
  96. 2020-10-23Code 404 S01E05 1080p HEVC x265-MeGusta
  97. 2020-10-23Blood Pi 2016 1080p WEBRip x265-RARBG
  98. 2020-10-23Bad Education 2019 1080p BluRay x265-RARBG
  99. 2020-10-23Chills Down Your Spine 2020 1080p WEBRip x265-RARBG

More eBooks ...

46698 pages, 4669780 eBooks in total, list all pages->

Search free ebooks in ebookee.com!
Back to Top